Letzte erfasste Runde: Manfred Rödger - 1:43.420 - Lamborghini Huracan GT3 - Daytona International Speedway - Road Course - 18.08.2022 16:38:00
Platz Datum Fahrer Zeit Diff S1 S2 S3 Fahrzeug Session KG Reifen Restriktor Runden
- - Theoretische Bestzeit 7:53.098 - 1:15.555 6:33.363 04.180 - - - - - -
1 29.07.2022 Marc-Philipp Enders 7:53.135 - 1:15.592 6:33.363 4.180 Audi R8 LMS Evo (2019) Race 20 M 5 13
2 29.07.2022 Noah Cebulla 7:53.138 0.003 1:15.555 6:33.394 4.189 Ferrari 488 GT3 Race 20 M 0 15
3 29.07.2022 Max Bischoff 7:54.724 1.589 1:16.056 6:34.460 4.208 Audi R8 LMS Evo (2019) Race 20 M 5 14
4 29.07.2022 Tobias Lambrich 7:57.648 4.513 1:16.432 6:36.977 4.239 Mercedes-Benz AMG GT3 Evo Race 0 S 10 12
5 29.07.2022 Christian Rütten 7:59.358 6.223 1:16.913 6:38.197 4.248 BMW Z4 GT3 Race 20 M 0 14
6 29.07.2022 Markus Knecht 8:02.291 9.156 1:17.543 6:40.487 4.261 Audi R8 LMS Evo (2019) Race 20 M 5 14
7 29.07.2022 Volker Vosseler 8:02.942 9.807 1:17.645 6:41.077 4.220 BMW Z4 GT3 Race 28 S 8 13
8 29.07.2022 Ricco Steinbrücker 8:15.591 22.456 1:18.828 6:52.479 4.284 Lamborghini Huracan VR2GT Race 0 H 0 15
9 29.07.2022 Lars Braun 8:17.660 24.525 1:18.935 6:54.469 4.256 McLaren 570S VR2GT Race 0 H 0 14
10 29.07.2022 Philip Goik 8:17.753 24.618 1:19.622 6:53.866 4.265 Lamborghini Huracan VR2GT Race 0 H 0 15
11 29.07.2022 Hannes Hickl 8:18.191 25.056 1:18.963 6:54.949 4.279 Porsche 911 VR2GT Race 0 H 0 15
12 29.07.2022 Paul Goroll 8:20.655 27.520 1:18.897 6:57.415 4.343 McLaren 570S VR2GT Race 0 H 0 13
13 29.07.2022 Eskil Peath 8:22.891 29.756 1:20.598 6:57.986 4.307 Lamborghini Huracan VR2GT Race 0 H 0 14
14 29.07.2022 Tim Seemann 8:26.854 33.719 1:19.678 7:02.834 4.342 Audi R8 LMS VR2GT Race 0 H 0 12
15 29.07.2022 Andreas Roggel 8:35.047 41.912 1:21.184 7:09.224 4.639 Hyundai i30 N TWC Race 0 S 0 11
16 29.07.2022 Patrick Neubert 8:36.993 43.858 1:22.004 7:10.313 4.676 Hyundai i30 N TWC Race 0 S 0 11
17 29.07.2022 Christoph Mües 8:38.367 45.232 1:21.682 7:12.014 4.671 Mercedes-Benz A45 AMG TWC Race 0 S 0 13
18 29.07.2022 David Schubert 8:39.570 46.435 1:22.026 7:12.864 4.680 Mercedes-Benz A45 AMG TWC Race 0 S 0 13
19 29.07.2022 Thorsten Hoppius 8:39.916 46.781 1:22.313 7:12.950 4.653 Ford Focus TWC Race 0 S 0 14
20 29.07.2022 Jürgen Arz 8:42.113 48.978 1:23.143 7:14.273 4.697 BMW 125i TWC Race 0 S 0 13
21 29.07.2022 Pascal Reihe 8:42.778 49.643 1:22.593 7:15.509 4.676 Honda Civic FK7 TWC Race 0 S 0 10
22 29.07.2022 Sebastian Senkbeil 8:42.819 49.684 1:23.191 7:14.934 4.694 Audi RS3 TWC Race 1 S 0 11
23 29.07.2022 Fabian Kannewischer 8:43.560 50.425 1:22.874 7:15.965 4.721 Opel Astra TWC Race 0 S 0 14
24 29.07.2022 Dennis Hillmann 8:43.820 50.685 1:23.158 7:15.965 4.697 Mercedes-Benz A45 AMG TWC Race 0 S 0 10
25 29.07.2022 Edgar Steffens 8:45.662 52.527 1:23.114 7:17.855 4.693 Peugeot 308 TWC Race 0 S 0 7
26 29.07.2022 Thomas Maas 8:46.489 53.354 1:22.902 7:18.902 4.685 Opel Astra TWC Race 0 S 0 14
27 29.07.2022 Richard Kliem 8:50.859 57.724 1:23.954 7:22.351 4.554 BMW M3 E30 Endurance Race 0 M 0 12
28 29.07.2022 Valentin Knechtel 8:52.494 59.359 1:24.892 7:23.038 4.564 Mercedes-Benz 190E VRLN Race 0 M 0 13
29 29.07.2022 Marvin Warthöfer 8:54.577 1:01.442 1:24.100 7:25.865 4.612 Nissan Primera P11 Endurance Race 0 M 0 13
30 29.07.2022 Carlo Pedersoli 8:55.268 1:02.133 1:24.900 7:25.806 4.562 BMW M3 E30 Endurance Race 0 M 0 12
31 29.07.2022 Fabian Wilke 8:56.829 1:03.694 1:25.928 7:26.302 4.599 BMW M3 E30 Endurance Race 1 M 1 6
32 29.07.2022 Bernhard Schwab 8:58.463 1:05.328 1:24.697 7:28.942 4.824 BMW M240i Cup Race 0 M 0 13
33 29.07.2022 Jan Nietsch 8:59.377 1:06.242 1:24.760 7:29.766 4.851 BMW M240i Cup Race 0 M 0 7
34 29.07.2022 Sven Maser 8:59.685 1:06.550 1:25.054 7:29.960 4.671 Volvo 850 Estate Race 0 M 0 11
35 29.07.2022 Sebastian Ponath 8:59.702 1:06.567 1:24.393 7:30.495 4.814 BMW M240i Cup Race 0 M 0 12
36 29.07.2022 Denis Todt 9:00.549 1:07.414 1:24.600 7:31.071 4.878 BMW M240i Cup Race 0 M 0 13
37 29.07.2022 Tim Hallmann 9:01.089 1:07.954 1:24.609 7:31.611 4.869 BMW M240i Cup Race 0 M 0 13
38 29.07.2022 Franz Müller 9:03.339 1:10.204 1:25.549 7:32.984 4.806 BMW M240i Cup Race 0 M 0 6
39 29.07.2022 Yannic-Marvin Schild 9:06.583 1:13.448 1:26.472 7:35.382 4.729 BMW 320i STW Race 0 M 0 11
40 29.07.2022 Martin Schnicke 9:07.324 1:14.189 1:26.367 7:36.075 4.882 BMW M240i Cup Race 0 M 0 10
41 29.07.2022 Andreas Wagner 9:15.050 1:21.915 1:26.866 7:43.266 4.918 Nissan Primera P11 Endurance Race 2 M 0 3

SERVER

0 / 61
virtualracing.org #1 GTM
QualifikationLime Rock Park -- Uphill Chicane
0 / 81
virtualracing.org #3 FS
Training 1Lime Rock Park -- Uphill Chicane
0 / 81
virtualracing.org #4 LSM
Training 1Spa-Francorchamps Endurance
0 / 34
virtualracing.org #5 VRF1S
Training 1Zandvoort 2021
1 / 34
virtualracing.org #6 VRCS
Training 1Magny-Cours
0 / 81
virtualracing.org #P1 BTCC
Training 1Oulton Park International NC
0 / 81
virtualracing.org #P2 CA
Training 1Silverstone International
0 / 34
virtualracing.org #P3 Mini
Training 1Belgium 1960s (League Friendly)
0 / 33
virtualracing.org #P4 IR18
Training 1Indianapolis -- Oval
0/31
virtualracing.org#4 GTC Training Standard
TrainingDaytona International Speedway - Road Course
1/31
virtualracing.org#5 GTC Training A
TrainingDaytona International Speedway - Road Course
0/24
virtualracing.org#30 ALT Training
TrainingFuji Speedway - Grand Prix Circuit 1968
0/32
virtualracing.org#33 GTC Starttest
unbekanntDaytona International Speedway - Road Course